sensor_id;sensor_type;location;lat;lon;timestamp;pressure;altitude;pressure_sealevel;temperature;humidity
61554;BME280;47425;51.976;5.326;2023-02-20T00:01:06;102405.97;;;16.88;49.03
61554;BME280;47425;51.976;5.326;2023-02-20T00:06:24;102401.47;;;16.92;48.86
61554;BME280;47425;51.976;5.326;2023-02-20T00:08:52;102393.50;;;16.95;48.81
61554;BME280;47425;51.976;5.326;2023-02-20T00:11:21;102383.69;;;17.00;48.82
61554;BME280;47425;51.976;5.326;2023-02-20T00:13:49;102387.06;;;17.05;48.29
61554;BME280;47425;51.976;5.326;2023-02-20T00:16:30;102376.53;;;17.04;48.59
61554;BME280;47425;51.976;5.326;2023-02-20T00:19:00;102362.50;;;17.00;48.70
61554;BME280;47425;51.976;5.326;2023-02-20T00:21:31;102343.94;;;17.02;48.50
61554;BME280;47425;51.976;5.326;2023-02-20T00:24:14;102341.25;;;17.03;48.40
61554;BME280;47425;51.976;5.326;2023-02-20T00:26:46;102343.91;;;17.03;48.41
61554;BME280;47425;51.976;5.326;2023-02-20T00:29:45;102347.41;;;17.04;48.34
61554;BME280;47425;51.976;5.326;2023-02-20T00:32:15;102346.50;;;17.05;48.43
61554;BME280;47425;51.976;5.326;2023-02-20T00:34:50;102344.72;;;17.05;48.24
61554;BME280;47425;51.976;5.326;2023-02-20T00:37:28;102345.78;;;16.98;47.69
61554;BME280;47425;51.976;5.326;2023-02-20T00:40:10;102346.88;;;16.89;48.63
61554;BME280;47425;51.976;5.326;2023-02-20T00:42:57;102342.31;;;16.94;48.35
61554;BME280;47425;51.976;5.326;2023-02-20T00:45:42;102344.00;;;16.99;47.67
61554;BME280;47425;51.976;5.326;2023-02-20T00:48:18;102339.00;;;16.85;48.85
61554;BME280;47425;51.976;5.326;2023-02-20T00:51:05;102346.81;;;16.92;48.73
61554;BME280;47425;51.976;5.326;2023-02-20T00:53:43;102337.84;;;16.98;48.45
61554;BME280;47425;51.976;5.326;2023-02-20T00:56:27;102337.03;;;16.96;48.30
61554;BME280;47425;51.976;5.326;2023-02-20T00:59:03;102337.97;;;16.93;48.50
61554;BME280;47425;51.976;5.326;2023-02-20T01:01:38;102335.25;;;16.97;48.48
61554;BME280;47425;51.976;5.326;2023-02-20T01:04:10;102335.25;;;16.97;48.23
61554;BME280;47425;51.976;5.326;2023-02-20T01:06:42;102329.97;;;16.95;48.52
61554;BME280;47425;51.976;5.326;2023-02-20T01:09:28;102319.28;;;17.00;48.41
61554;BME280;47425;51.976;5.326;2023-02-20T01:12:02;102313.94;;;17.01;48.42
61554;BME280;47425;51.976;5.326;2023-02-20T01:14:31;102315.69;;;17.02;48.42
61554;BME280;47425;51.976;5.326;2023-02-20T01:17:10;102309.47;;;17.05;48.39
61554;BME280;47425;51.976;5.326;2023-02-20T01:19:45;102301.47;;;17.06;48.42
61554;BME280;47425;51.976;5.326;2023-02-20T01:22:40;102297.09;;;17.05;48.10
61554;BME280;47425;51.976;5.326;2023-02-20T01:25:14;102282.16;;;17.03;48.50
61554;BME280;47425;51.976;5.326;2023-02-20T01:27:50;102263.59;;;17.04;48.33
61554;BME280;47425;51.976;5.326;2023-02-20T01:30:20;102255.81;;;16.98;48.59
61554;BME280;47425;51.976;5.326;2023-02-20T01:33:09;102242.53;;;17.00;48.67
61554;BME280;47425;51.976;5.326;2023-02-20T01:35:42;102242.53;;;17.00;48.54
61554;BME280;47425;51.976;5.326;2023-02-20T01:41:04;102239.97;;;16.97;48.21
61554;BME280;47425;51.976;5.326;2023-02-20T01:43:35;102245.34;;;16.93;48.47
61554;BME280;47425;51.976;5.326;2023-02-20T01:49:20;102238.41;;;16.89;47.93
61554;BME280;47425;51.976;5.326;2023-02-20T01:51:54;102238.63;;;16.78;48.50
61554;BME280;47425;51.976;5.326;2023-02-20T01:54:45;102236.88;;;16.77;47.89
61554;BME280;47425;51.976;5.326;2023-02-20T01:57:47;102236.94;;;16.74;48.63
61554;BME280;47425;51.976;5.326;2023-02-20T02:00:16;102222.81;;;16.75;48.65
61554;BME280;47425;51.976;5.326;2023-02-20T02:02:47;102235.09;;;16.78;48.58
61554;BME280;47425;51.976;5.326;2023-02-20T02:05:25;102225.22;;;16.85;48.56
61554;BME280;47425;51.976;5.326;2023-02-20T02:08:19;102231.88;;;16.65;48.56
61554;BME280;47425;51.976;5.326;2023-02-20T02:10:50;102237.09;;;16.68;48.85
61554;BME280;47425;51.976;5.326;2023-02-20T02:13:58;102225.41;;;16.78;48.63
61554;BME280;47425;51.976;5.326;2023-02-20T02:22:13;102216.97;;;16.61;48.87
61554;BME280;47425;51.976;5.326;2023-02-20T02:25:11;102219.41;;;16.70;48.93
61554;BME280;47425;51.976;5.326;2023-02-20T02:30:50;102212.88;;;16.49;49.04
61554;BME280;47425;51.976;5.326;2023-02-20T02:34:00;102209.28;;;16.52;49.27
61554;BME280;47425;51.976;5.326;2023-02-20T02:36:41;102214.28;;;16.64;48.10
61554;BME280;47425;51.976;5.326;2023-02-20T02:39:24;102207.66;;;16.44;48.79
61554;BME280;47425;51.976;5.326;2023-02-20T02:41:55;102212.88;;;16.49;49.23
61554;BME280;47425;51.976;5.326;2023-02-20T02:44:31;102213.31;;;16.29;49.44
61554;BME280;47425;51.976;5.326;2023-02-20T02:47:24;102211.66;;;16.25;49.53
61554;BME280;47425;51.976;5.326;2023-02-20T02:49:55;102206.13;;;16.36;48.97
61554;BME280;47425;51.976;5.326;2023-02-20T02:52:34;102195.41;;;16.40;49.14
61554;BME280;47425;51.976;5.326;2023-02-20T02:55:33;102193.88;;;16.30;48.98
61554;BME280;47425;51.976;5.326;2023-02-20T02:58:31;102182.66;;;16.20;48.83
61554;BME280;47425;51.976;5.326;2023-02-20T03:00:54;102180.66;;;15.91;49.89
61554;BME280;47425;51.976;5.326;2023-02-20T03:03:28;102175.38;;;15.91;49.87
61554;BME280;47425;51.976;5.326;2023-02-20T03:05:57;102184.34;;;15.84;49.84
61554;BME280;47425;51.976;5.326;2023-02-20T03:08:28;102182.78;;;15.72;50.16
61554;BME280;47425;51.976;5.326;2023-02-20T03:11:05;102180.88;;;15.78;50.54
61554;BME280;47425;51.976;5.326;2023-02-20T03:13:44;102170.16;;;15.88;50.26
61554;BME280;47425;51.976;5.326;2023-02-20T03:16:39;102160.75;;;15.73;49.80
61554;BME280;47425;51.976;5.326;2023-02-20T03:19:11;102160.25;;;15.55;50.36
61554;BME280;47425;51.976;5.326;2023-02-20T03:21:52;102171.97;;;15.40;51.18
61554;BME280;47425;51.976;5.326;2023-02-20T03:24:49;102179.53;;;15.57;50.87
61554;BME280;47425;51.976;5.326;2023-02-20T03:27:36;102171.19;;;15.35;50.07
61554;BME280;47425;51.976;5.326;2023-02-20T03:30:16;102173.34;;;15.13;50.50
61554;BME280;47425;51.976;5.326;2023-02-20T03:32:45;102167.50;;;14.96;51.86
61554;BME280;47425;51.976;5.326;2023-02-20T03:35:46;102167.69;;;14.85;52.06
61554;BME280;47425;51.976;5.326;2023-02-20T03:38:36;102173.72;;;14.91;52.64
61554;BME280;47425;51.976;5.326;2023-02-20T03:41:33;102167.09;;;15.19;51.39
61554;BME280;47425;51.976;5.326;2023-02-20T03:44:19;102170.84;;;15.07;51.59
61554;BME280;47425;51.976;5.326;2023-02-20T03:47:00;102169.16;;;15.01;52.01
61554;BME280;47425;51.976;5.326;2023-02-20T03:49:33;102162.72;;;15.18;52.11
61554;BME280;47425;51.976;5.326;2023-02-20T03:52:04;102159.75;;;15.35;51.82
61554;BME280;47425;51.976;5.326;2023-02-20T03:54:39;102154.06;;;15.55;51.57
61554;BME280;47425;51.976;5.326;2023-02-20T03:57:19;102164.91;;;15.41;50.67
61554;BME280;47425;51.976;5.326;2023-02-20T04:02:49;102170.81;;;15.08;51.87
61554;BME280;47425;51.976;5.326;2023-02-20T04:05:27;102160.25;;;15.08;51.37
61554;BME280;47425;51.976;5.326;2023-02-20T04:08:05;102165.97;;;14.82;52.33
61554;BME280;47425;51.976;5.326;2023-02-20T04:10:47;102159.91;;;14.79;52.58
61554;BME280;47425;51.976;5.326;2023-02-20T04:13:21;102164.09;;;14.89;52.93
61554;BME280;47425;51.976;5.326;2023-02-20T04:15:57;102160.13;;;15.16;52.68
61554;BME280;47425;51.976;5.326;2023-02-20T04:18:26;102159.53;;;15.46;51.68
61554;BME280;47425;51.976;5.326;2023-02-20T04:21:38;102161.25;;;15.48;50.98
61554;BME280;47425;51.976;5.326;2023-02-20T04:24:17;102159.88;;;15.29;51.08
61554;BME280;47425;51.976;5.326;2023-02-20T04:26:53;102160.31;;;15.04;51.47
61554;BME280;47425;51.976;5.326;2023-02-20T04:29:28;102157.47;;;15.16;51.92
61554;BME280;47425;51.976;5.326;2023-02-20T04:32:04;102155.84;;;15.07;52.35
61554;BME280;47425;51.976;5.326;2023-02-20T04:34:34;102154.84;;;15.15;51.98
61554;BME280;47425;51.976;5.326;2023-02-20T04:37:16;102160.56;;;15.38;52.11
61554;BME280;47425;51.976;5.326;2023-02-20T04:39:47;102163.91;;;15.47;51.27
61554;BME280;47425;51.976;5.326;2023-02-20T04:42:18;102155.06;;;15.49;50.75
61554;BME280;47425;51.976;5.326;2023-02-20T04:45:19;102153.00;;;15.20;51.17
61554;BME280;47425;51.976;5.326;2023-02-20T04:47:53;102151.66;;;14.96;51.52
61554;BME280;47425;51.976;5.326;2023-02-20T04:50:32;102147.13;;;15.05;51.98
61554;BME280;47425;51.976;5.326;2023-02-20T04:53:17;102154.84;;;15.16;52.28
61554;BME280;47425;51.976;5.326;2023-02-20T04:55:47;102150.97;;;15.34;51.34
61554;BME280;47425;51.976;5.326;2023-02-20T04:58:18;102155.34;;;15.35;51.92
61554;BME280;47425;51.976;5.326;2023-02-20T05:01:19;102150.13;;;15.32;51.30
61554;BME280;47425;51.976;5.326;2023-02-20T05:03:57;102148.56;;;15.22;52.13
61554;BME280;47425;51.976;5.326;2023-02-20T05:06:23;102153.44;;;15.43;51.26
61554;BME280;47425;51.976;5.326;2023-02-20T05:08:51;102148.28;;;15.36;51.42
61554;BME280;47425;51.976;5.326;2023-02-20T05:11:24;102157.03;;;15.39;50.95
61554;BME280;47425;51.976;5.326;2023-02-20T05:13:54;102149.91;;;15.44;51.44
61554;BME280;47425;51.976;5.326;2023-02-20T05:16:24;102145.44;;;15.47;50.68
61554;BME280;47425;51.976;5.326;2023-02-20T05:19:12;102149.97;;;15.40;51.25
61554;BME280;47425;51.976;5.326;2023-02-20T05:21:50;102138.28;;;15.52;51.64
61554;BME280;47425;51.976;5.326;2023-02-20T05:27:22;102143.75;;;15.88;50.50
61554;BME280;47425;51.976;5.326;2023-02-20T05:29:57;102144.28;;;16.04;50.07
61554;BME280;47425;51.976;5.326;2023-02-20T05:32:27;102143.38;;;16.05;49.93
61554;BME280;47425;51.976;5.326;2023-02-20T05:34:53;102140.75;;;16.03;50.01
61554;BME280;47425;51.976;5.326;2023-02-20T05:37:24;102141.66;;;16.02;49.32
61554;BME280;47425;51.976;5.326;2023-02-20T05:40:05;102134.00;;;15.91;49.77
61554;BME280;47425;51.976;5.326;2023-02-20T05:42:57;102138.75;;;15.74;50.44
61554;BME280;47425;51.976;5.326;2023-02-20T05:48:20;102147.50;;;15.74;50.66
61554;BME280;47425;51.976;5.326;2023-02-20T05:50:49;102135.41;;;15.64;51.08
61554;BME280;47425;51.976;5.326;2023-02-20T05:53:38;102139.75;;;15.67;51.28
61554;BME280;47425;51.976;5.326;2023-02-20T05:56:06;102133.69;;;15.63;51.84
61554;BME280;47425;51.976;5.326;2023-02-20T05:58:54;102136.81;;;15.38;51.95
61554;BME280;47425;51.976;5.326;2023-02-20T06:01:29;102135.34;;;15.23;51.84
61554;BME280;47425;51.976;5.326;2023-02-20T06:06:58;102143.13;;;14.83;53.15
61554;BME280;47425;51.976;5.326;2023-02-20T06:09:26;102138.03;;;14.70;53.96
61554;BME280;47425;51.976;5.326;2023-02-20T06:12:01;102132.28;;;14.98;53.27
61554;BME280;47425;51.976;5.326;2023-02-20T06:15:11;102127.78;;;15.03;53.27
61554;BME280;47425;51.976;5.326;2023-02-20T06:17:47;102130.47;;;15.02;53.95
61554;BME280;47425;51.976;5.326;2023-02-20T06:20:15;102130.16;;;15.19;52.92
61554;BME280;47425;51.976;5.326;2023-02-20T06:22:56;102124.91;;;15.16;53.29
61554;BME280;47425;51.976;5.326;2023-02-20T06:25:24;102123.78;;;15.29;53.06
61554;BME280;47425;51.976;5.326;2023-02-20T06:28:01;102135.53;;;15.13;54.15
61554;BME280;47425;51.976;5.326;2023-02-20T06:30:34;102125.50;;;15.32;53.21
61554;BME280;47425;51.976;5.326;2023-02-20T06:33:08;102129.69;;;15.42;52.79
61554;BME280;47425;51.976;5.326;2023-02-20T06:35:46;102126.31;;;15.35;53.69
61554;BME280;47425;51.976;5.326;2023-02-20T06:38:14;102113.72;;;15.04;52.89
61554;BME280;47425;51.976;5.326;2023-02-20T06:40:41;102118.59;;;14.77;54.03
61554;BME280;47425;51.976;5.326;2023-02-20T06:43:10;102134.09;;;14.94;54.33
61554;BME280;47425;51.976;5.326;2023-02-20T06:45:45;102134.69;;;15.12;54.32
61554;BME280;47425;51.976;5.326;2023-02-20T06:48:26;102136.84;;;15.37;53.59
61554;BME280;47425;51.976;5.326;2023-02-20T06:51:04;102135.31;;;15.25;51.98
61554;BME280;47425;51.976;5.326;2023-02-20T06:53:44;102133.06;;;15.03;54.18
61554;BME280;47425;51.976;5.326;2023-02-20T06:56:15;102141.88;;;15.02;53.59
61554;BME280;47425;51.976;5.326;2023-02-20T06:58:44;102153.31;;;15.03;53.25
61554;BME280;47425;51.976;5.326;2023-02-20T07:01:15;102143.47;;;15.13;53.02
61554;BME280;47425;51.976;5.326;2023-02-20T07:03:42;102145.25;;;15.12;53.96
61554;BME280;47425;51.976;5.326;2023-02-20T07:06:09;102131.66;;;15.31;53.28
61554;BME280;47425;51.976;5.326;2023-02-20T07:08:39;102145.84;;;15.25;52.54
61554;BME280;47425;51.976;5.326;2023-02-20T07:11:05;102153.06;;;15.17;52.38
61554;BME280;47425;51.976;5.326;2023-02-20T07:13:36;102143.16;;;14.81;52.85
61554;BME280;47425;51.976;5.326;2023-02-20T07:16:09;102146.03;;;14.66;54.82
61554;BME280;47425;51.976;5.326;2023-02-20T07:18:40;102149.88;;;14.98;54.32
61554;BME280;47425;51.976;5.326;2023-02-20T07:21:21;102143.31;;;15.20;53.72
61554;BME280;47425;51.976;5.326;2023-02-20T07:24:01;102138.63;;;15.35;53.12
61554;BME280;47425;51.976;5.326;2023-02-20T07:26:29;102133.88;;;15.08;53.34
61554;BME280;47425;51.976;5.326;2023-02-20T07:29:11;102144.66;;;14.94;52.92
61554;BME280;47425;51.976;5.326;2023-02-20T07:31:55;102140.81;;;14.61;53.36
61554;BME280;47425;51.976;5.326;2023-02-20T07:34:24;102139.91;;;14.65;54.55
61554;BME280;47425;51.976;5.326;2023-02-20T07:36:57;102138.81;;;14.75;54.13
61554;BME280;47425;51.976;5.326;2023-02-20T07:39:26;102151.16;;;14.75;54.41
61554;BME280;47425;51.976;5.326;2023-02-20T07:41:54;102142.31;;;14.77;53.87
61554;BME280;47425;51.976;5.326;2023-02-20T07:44:43;102142.38;;;14.74;54.25
61554;BME280;47425;51.976;5.326;2023-02-20T07:47:25;102137.91;;;14.78;54.74
61554;BME280;47425;51.976;5.326;2023-02-20T07:49:52;102142.91;;;14.95;54.18
61554;BME280;47425;51.976;5.326;2023-02-20T07:52:19;102143.75;;;14.96;53.24
61554;BME280;47425;51.976;5.326;2023-02-20T07:54:57;102132.31;;;14.97;53.66
61554;BME280;47425;51.976;5.326;2023-02-20T07:57:37;102146.38;;;14.96;53.32
61554;BME280;47425;51.976;5.326;2023-02-20T08:00:12;102138.63;;;14.86;53.74
61554;BME280;47425;51.976;5.326;2023-02-20T08:02:41;102144.47;;;15.05;54.31
61554;BME280;47425;51.976;5.326;2023-02-20T08:05:13;102143.38;;;15.16;53.50
61554;BME280;47425;51.976;5.326;2023-02-20T08:07:48;102140.25;;;14.95;53.64
61554;BME280;47425;51.976;5.326;2023-02-20T08:10:34;102142.59;;;15.10;53.71
61554;BME280;47425;51.976;5.326;2023-02-20T08:13:05;102145.16;;;15.15;53.92
61554;BME280;47425;51.976;5.326;2023-02-20T08:15:45;102138.00;;;15.22;53.54
61554;BME280;47425;51.976;5.326;2023-02-20T08:18:17;102137.84;;;15.31;53.30
61554;BME280;47425;51.976;5.326;2023-02-20T08:20:54;102142.53;;;15.15;53.45
61554;BME280;47425;51.976;5.326;2023-02-20T08:23:22;102148.25;;;14.92;53.21
61554;BME280;47425;51.976;5.326;2023-02-20T08:25:53;102133.75;;;14.62;53.26
61554;BME280;47425;51.976;5.326;2023-02-20T08:28:26;102132.09;;;14.56;54.43
61554;BME280;47425;51.976;5.326;2023-02-20T08:31:03;102136.34;;;14.66;54.75
61554;BME280;47425;51.976;5.326;2023-02-20T08:33:31;102141.53;;;14.72;54.33
61554;BME280;47425;51.976;5.326;2023-02-20T08:36:07;102131.53;;;14.91;54.31
61554;BME280;47425;51.976;5.326;2023-02-20T08:38:36;102118.69;;;15.20;53.10
61554;BME280;47425;51.976;5.326;2023-02-20T08:41:10;102125.75;;;15.19;53.28
61554;BME280;47425;51.976;5.326;2023-02-20T08:43:41;102138.63;;;15.36;53.30
61554;BME280;47425;51.976;5.326;2023-02-20T08:46:18;102133.97;;;15.48;52.94
61554;BME280;47425;51.976;5.326;2023-02-20T08:48:53;102137.13;;;15.23;53.07
61554;BME280;47425;51.976;5.326;2023-02-20T08:51:21;102130.91;;;15.25;53.52
61554;BME280;47425;51.976;5.326;2023-02-20T08:54:03;102130.50;;;15.46;53.16
61554;BME280;47425;51.976;5.326;2023-02-20T08:56:39;102144.47;;;15.51;52.08
61554;BME280;47425;51.976;5.326;2023-02-20T08:59:07;102133.56;;;15.24;53.21
61554;BME280;47425;51.976;5.326;2023-02-20T09:01:39;102138.97;;;15.18;52.45
61554;BME280;47425;51.976;5.326;2023-02-20T09:04:08;102134.84;;;15.01;52.86
61554;BME280;47425;51.976;5.326;2023-02-20T09:06:37;102139.41;;;14.93;53.31
61554;BME280;47425;51.976;5.326;2023-02-20T09:09:03;102139.97;;;15.12;53.63
61554;BME280;47425;51.976;5.326;2023-02-20T09:11:29;102137.72;;;15.36;52.92
61554;BME280;47425;51.976;5.326;2023-02-20T09:14:16;102137.88;;;15.28;52.94
61554;BME280;47425;51.976;5.326;2023-02-20T09:16:46;102130.81;;;15.30;52.89
61554;BME280;47425;51.976;5.326;2023-02-20T09:19:20;102131.50;;;15.40;52.20
61554;BME280;47425;51.976;5.326;2023-02-20T09:21:48;102135.28;;;15.26;52.42
61554;BME280;47425;51.976;5.326;2023-02-20T09:24:18;102123.00;;;15.25;53.20
61554;BME280;47425;51.976;5.326;2023-02-20T09:26:48;102126.91;;;15.48;52.64
61554;BME280;47425;51.976;5.326;2023-02-20T09:29:15;102125.13;;;15.50;52.30
61554;BME280;47425;51.976;5.326;2023-02-20T09:31:43;102123.53;;;15.41;52.29
61554;BME280;47425;51.976;5.326;2023-02-20T09:34:09;102118.25;;;15.41;53.25
61554;BME280;47425;51.976;5.326;2023-02-20T09:36:36;102117.50;;;15.78;51.96
61554;BME280;47425;51.976;5.326;2023-02-20T09:39:12;102127.13;;;15.83;51.58
61554;BME280;47425;51.976;5.326;2023-02-20T09:41:53;102116.22;;;15.56;51.11
61554;BME280;47425;51.976;5.326;2023-02-20T09:44:37;102117.69;;;15.27;52.10
61554;BME280;47425;51.976;5.326;2023-02-20T09:47:18;102127.41;;;15.23;53.12
61554;BME280;47425;51.976;5.326;2023-02-20T09:49:49;102132.97;;;15.09;52.97
61554;BME280;47425;51.976;5.326;2023-02-20T09:52:15;102118.28;;;14.94;52.90
61554;BME280;47425;51.976;5.326;2023-02-20T09:54:45;102124.31;;;15.01;53.52
61554;BME280;47425;51.976;5.326;2023-02-20T09:57:19;102117.81;;;15.19;52.61
61554;BME280;47425;51.976;5.326;2023-02-20T09:59:49;102120.63;;;15.10;53.02
61554;BME280;47425;51.976;5.326;2023-02-20T10:02:19;102121.47;;;15.14;52.94
61554;BME280;47425;51.976;5.326;2023-02-20T10:05:13;102120.53;;;15.15;53.11
61554;BME280;47425;51.976;5.326;2023-02-20T10:07:43;102138.94;;;15.19;52.61
61554;BME280;47425;51.976;5.326;2023-02-20T10:10:16;102143.63;;;15.03;52.63
61554;BME280;47425;51.976;5.326;2023-02-20T10:13:09;102132.31;;;14.97;53.52
61554;BME280;47425;51.976;5.326;2023-02-20T10:15:48;102131.94;;;15.17;52.53
61554;BME280;47425;51.976;5.326;2023-02-20T10:18:25;102138.53;;;14.92;53.28
61554;BME280;47425;51.976;5.326;2023-02-20T10:21:13;102144.88;;;14.82;53.84
61554;BME280;47425;51.976;5.326;2023-02-20T10:24:05;102144.66;;;14.94;53.48
61554;BME280;47425;51.976;5.326;2023-02-20T10:27:09;102135.44;;;15.19;53.36
61554;BME280;47425;51.976;5.326;2023-02-20T10:29:41;102143.69;;;15.46;52.73
61554;BME280;47425;51.976;5.326;2023-02-20T10:32:17;102135.03;;;15.40;51.75
61554;BME280;47425;51.976;5.326;2023-02-20T10:34:48;102124.69;;;15.30;52.88
61554;BME280;47425;51.976;5.326;2023-02-20T10:37:24;102124.31;;;15.47;51.73
61554;BME280;47425;51.976;5.326;2023-02-20T10:40:12;102138.38;;;15.49;52.05
61554;BME280;47425;51.976;5.326;2023-02-20T10:42:49;102121.09;;;15.74;51.91
61554;BME280;47425;51.976;5.326;2023-02-20T10:45:39;102126.78;;;15.56;50.92
61554;BME280;47425;51.976;5.326;2023-02-20T10:48:10;102129.91;;;15.31;51.79
61554;BME280;47425;51.976;5.326;2023-02-20T10:50:41;102138.16;;;15.14;52.88
61554;BME280;47425;51.976;5.326;2023-02-20T10:53:15;102136.03;;;15.33;52.65
61554;BME280;47425;51.976;5.326;2023-02-20T10:55:51;102116.28;;;15.53;52.36
61554;BME280;47425;51.976;5.326;2023-02-20T10:58:34;102107.00;;;15.75;51.00
61554;BME280;47425;51.976;5.326;2023-02-20T11:01:24;102138.81;;;15.69;51.36
61554;BME280;47425;51.976;5.326;2023-02-20T11:04:05;102136.22;;;15.68;51.79
61554;BME280;47425;51.976;5.326;2023-02-20T11:06:37;102128.00;;;15.82;51.10
61554;BME280;47425;51.976;5.326;2023-02-20T11:09:04;102113.78;;;15.89;51.00
61554;BME280;47425;51.976;5.326;2023-02-20T11:11:39;102112.94;;;15.87;50.84
61554;BME280;47425;51.976;5.326;2023-02-20T11:14:39;102118.47;;;15.74;50.81
61554;BME280;47425;51.976;5.326;2023-02-20T11:17:12;102112.47;;;15.66;51.53
61554;BME280;47425;51.976;5.326;2023-02-20T11:19:50;102106.44;;;15.61;51.50
61554;BME280;47425;51.976;5.326;2023-02-20T11:22:38;102088.47;;;15.77;51.07
61554;BME280;47425;51.976;5.326;2023-02-20T11:25:14;102088.63;;;15.69;50.97
61554;BME280;47425;51.976;5.326;2023-02-20T11:27:54;102106.94;;;15.36;51.83
61554;BME280;47425;51.976;5.326;2023-02-20T11:30:57;102102.41;;;15.43;52.04
61554;BME280;47425;51.976;5.326;2023-02-20T11:33:27;102110.50;;;15.76;51.41
61554;BME280;47425;51.976;5.326;2023-02-20T11:36:15;102093.06;;;15.69;51.15
61554;BME280;47425;51.976;5.326;2023-02-20T11:39:13;102084.00;;;15.79;50.41
61554;BME280;47425;51.976;5.326;2023-02-20T11:41:44;102083.81;;;15.48;51.26
61554;BME280;47425;51.976;5.326;2023-02-20T11:44:19;102089.00;;;15.52;51.57
61554;BME280;47425;51.976;5.326;2023-02-20T11:47:08;102073.88;;;15.60;51.52
61554;BME280;47425;51.976;5.326;2023-02-20T11:49:42;102058.69;;;15.70;50.87
61554;BME280;47425;51.976;5.326;2023-02-20T11:52:21;102064.78;;;15.72;51.05
61554;BME280;47425;51.976;5.326;2023-02-20T11:55:07;102044.72;;;15.65;51.08
61554;BME280;47425;51.976;5.326;2023-02-20T11:57:46;102054.06;;;15.82;50.76
61554;BME280;47425;51.976;5.326;2023-02-20T12:00:43;102073.44;;;15.82;50.83
61554;BME280;47425;51.976;5.326;2023-02-20T12:03:30;102079.25;;;15.97;50.12
61554;BME280;47425;51.976;5.326;2023-02-20T12:06:34;102076.09;;;15.79;50.73
61554;BME280;47425;51.976;5.326;2023-02-20T12:09:13;102070.06;;;15.74;50.23
61554;BME280;47425;51.976;5.326;2023-02-20T12:11:52;102052.47;;;15.73;51.09
61554;BME280;47425;51.976;5.326;2023-02-20T12:14:36;102056.75;;;15.78;50.61
61554;BME280;47425;51.976;5.326;2023-02-20T12:17:34;102055.72;;;15.45;50.61
61554;BME280;47425;51.976;5.326;2023-02-20T12:20:09;102059.19;;;15.03;51.70
61554;BME280;47425;51.976;5.326;2023-02-20T12:22:59;102070.31;;;15.19;52.44
61554;BME280;47425;51.976;5.326;2023-02-20T12:25:35;102069.84;;;15.42;51.55
61554;BME280;47425;51.976;5.326;2023-02-20T12:28:07;102092.22;;;15.24;51.89
61554;BME280;47425;51.976;5.326;2023-02-20T12:30:51;102083.06;;;14.99;52.02
61554;BME280;47425;51.976;5.326;2023-02-20T12:33:39;102087.72;;;14.84;52.46
61554;BME280;47425;51.976;5.326;2023-02-20T12:36:14;102080.72;;;14.82;53.12
61554;BME280;47425;51.976;5.326;2023-02-20T12:38:49;102090.09;;;14.97;52.97
61554;BME280;47425;51.976;5.326;2023-02-20T12:44:30;102067.28;;;14.94;53.09
61554;BME280;47425;51.976;5.326;2023-02-20T12:47:01;102050.28;;;15.09;52.02
61554;BME280;47425;51.976;5.326;2023-02-20T12:49:43;102065.41;;;15.01;52.13
61554;BME280;47425;51.976;5.326;2023-02-20T12:52:31;102070.28;;;14.74;53.20
61554;BME280;47425;51.976;5.326;2023-02-20T12:55:35;102065.69;;;14.87;53.00
61554;BME280;47425;51.976;5.326;2023-02-20T12:58:13;102058.13;;;14.67;52.91
61554;BME280;47425;51.976;5.326;2023-02-20T13:03:37;102053.56;;;14.76;53.62
61554;BME280;47425;51.976;5.326;2023-02-20T13:06:09;102069.72;;;15.05;52.61
61554;BME280;47425;51.976;5.326;2023-02-20T13:08:49;102072.34;;;15.05;52.75
61554;BME280;47425;51.976;5.326;2023-02-20T13:11:23;102051.53;;;14.91;52.80
61554;BME280;47425;51.976;5.326;2023-02-20T13:14:03;102057.03;;;14.77;53.34
61554;BME280;47425;51.976;5.326;2023-02-20T13:16:53;102050.56;;;14.95;52.51
61554;BME280;47425;51.976;5.326;2023-02-20T13:19:25;102041.81;;;14.93;52.86
61554;BME280;47425;51.976;5.326;2023-02-20T13:22:14;102040.09;;;14.92;52.62
61554;BME280;47425;51.976;5.326;2023-02-20T13:24:44;102046.88;;;15.04;53.06
61554;BME280;47425;51.976;5.326;2023-02-20T13:27:27;102045.88;;;15.11;52.16
61554;BME280;47425;51.976;5.326;2023-02-20T13:30:13;102044.97;;;15.10;52.42
61554;BME280;47425;51.976;5.326;2023-02-20T13:33:09;102043.25;;;15.09;52.09
61554;BME280;47425;51.976;5.326;2023-02-20T13:35:45;102049.72;;;14.93;52.76
61554;BME280;47425;51.976;5.326;2023-02-20T13:38:24;102036.91;;;15.18;52.81
61554;BME280;47425;51.976;5.326;2023-02-20T13:41:02;102031.13;;;15.43;52.07
61554;BME280;47425;51.976;5.326;2023-02-20T13:43:37;102034.53;;;15.48;51.55
61554;BME280;47425;51.976;5.326;2023-02-20T13:46:09;102017.50;;;15.61;51.29
61554;BME280;47425;51.976;5.326;2023-02-20T13:48:40;102006.78;;;15.69;51.16
61554;BME280;47425;51.976;5.326;2023-02-20T13:53:53;102017.50;;;15.61;51.04
61554;BME280;47425;51.976;5.326;2023-02-20T13:56:44;102028.50;;;15.43;51.23
61554;BME280;47425;51.976;5.326;2023-02-20T13:59:17;102011.56;;;15.52;51.46
61554;BME280;47425;51.976;5.326;2023-02-20T14:02:04;101999.00;;;15.63;51.16
61554;BME280;47425;51.976;5.326;2023-02-20T14:04:38;101990.03;;;15.70;50.81
61554;BME280;47425;51.976;5.326;2023-02-20T14:07:05;101983.13;;;15.65;51.23
61554;BME280;47425;51.976;5.326;2023-02-20T14:09:46;101973.16;;;15.76;50.56
61554;BME280;47425;51.976;5.326;2023-02-20T14:12:25;101976.69;;;15.75;50.90
61554;BME280;47425;51.976;5.326;2023-02-20T14:15:08;101983.50;;;15.87;50.27
61554;BME280;47425;51.976;5.326;2023-02-20T14:17:40;101977.50;;;15.80;50.44
61554;BME280;47425;51.976;5.326;2023-02-20T14:20:21;101979.28;;;15.40;50.63
61554;BME280;47425;51.976;5.326;2023-02-20T14:25:39;101977.81;;;15.27;52.21